createdAt,value
2019-04-16T18:42:22.623Z,7.40
2019-04-16T18:45:16.452Z,7.03
2019-04-16T18:48:01.494Z,7.43
2019-04-16T18:50:27.731Z,7.13
2019-04-16T18:52:53.671Z,7.90
2019-04-16T18:55:22.319Z,7.43
2019-04-16T18:57:51.120Z,7.70
2019-04-16T19:00:40.376Z,7.73
2019-04-16T19:03:15.131Z,6.53
2019-04-16T19:05:50.371Z,6.43
2019-04-16T19:08:20.919Z,6.47
2019-04-16T19:10:55.383Z,6.83
2019-04-16T19:13:27.732Z,6.27
2019-04-16T19:15:56.698Z,6.23
2019-04-16T19:18:25.903Z,6.70
2019-04-16T19:20:55.659Z,6.50
2019-04-16T19:23:24.578Z,6.90
2019-04-16T19:25:55.372Z,6.30
2019-04-16T19:28:25.042Z,6.40
2019-04-16T19:30:54.581Z,7.20
2019-04-16T19:33:23.886Z,6.27
2019-04-16T19:35:53.682Z,6.87
2019-04-16T19:38:22.606Z,6.50
2019-04-16T19:40:51.828Z,5.97
2019-04-16T19:43:22.780Z,6.03
2019-04-16T19:45:51.787Z,5.63
2019-04-16T19:48:34.717Z,5.80
2019-04-16T19:50:52.029Z,5.87
2019-04-16T19:53:21.135Z,5.53
2019-04-16T19:55:50.297Z,5.23
2019-04-16T19:58:19.246Z,5.80
2019-04-16T20:00:48.384Z,5.57
2019-04-16T20:03:17.233Z,5.53
2019-04-16T20:05:46.013Z,5.63
2019-04-16T20:08:16.548Z,5.17
2019-04-16T20:10:48.578Z,5.60
2019-04-16T20:13:15.980Z,5.03
2019-04-16T20:15:44.878Z,5.57
2019-04-16T20:18:13.756Z,5.33
2019-04-16T20:20:42.407Z,5.00
2019-04-16T20:23:11.312Z,5.10
2019-04-16T20:25:39.955Z,4.67
2019-04-16T20:28:09.625Z,4.57
2019-04-16T20:30:39.411Z,5.10
2019-04-16T20:33:08.135Z,4.53
2019-04-16T20:35:36.869Z,4.50
2019-04-16T20:38:05.579Z,4.43
2019-04-16T20:40:34.701Z,4.90
2019-04-16T20:43:03.785Z,4.50
2019-04-16T20:45:32.480Z,4.37
2019-04-16T20:48:01.272Z,4.47
2019-04-16T20:50:30.397Z,4.20
2019-04-16T20:52:59.223Z,4.30
2019-04-16T20:55:27.887Z,4.50
2019-04-16T20:57:59.262Z,4.67
2019-04-16T21:00:29.614Z,4.67
2019-04-16T21:03:02.158Z,4.57
2019-04-16T21:05:28.598Z,4.70
2019-04-16T21:07:57.229Z,4.63
2019-04-16T21:10:25.807Z,4.63
2019-04-16T21:12:54.966Z,4.87
2019-04-16T21:15:27.382Z,4.70
2019-04-16T21:17:54.196Z,4.63
2019-04-16T21:20:22.775Z,4.77
2019-04-16T21:22:51.837Z,4.30
2019-04-16T21:25:20.400Z,5.07
2019-04-16T21:28:03.974Z,4.60
2019-04-16T21:30:33.561Z,4.50
2019-04-16T21:33:10.489Z,4.30
2019-04-16T21:35:42.426Z,4.20
2019-04-16T21:38:23.690Z,4.30
2019-04-16T21:40:52.778Z,4.33
2019-04-16T21:43:22.625Z,4.47
2019-04-16T21:45:51.207Z,4.30
2019-04-16T21:48:19.778Z,4.27
2019-04-16T21:50:48.466Z,4.43
2019-04-16T21:53:16.995Z,4.03
2019-04-16T21:55:45.596Z,4.30
2019-04-16T21:58:14.578Z,4.53
2019-04-16T22:01:05.146Z,4.67
2019-04-16T22:03:34.680Z,4.30
2019-04-16T22:06:04.179Z,3.80
2019-04-16T22:08:33.303Z,3.77
2019-04-16T22:11:02.864Z,4.27
2019-04-16T22:13:31.986Z,4.00
2019-04-16T22:16:00.490Z,4.23
2019-04-16T22:18:29.096Z,4.00
2019-04-16T22:20:57.741Z,4.00
2019-04-16T22:23:26.289Z,3.70
2019-04-16T22:25:57.150Z,4.20
2019-04-16T22:28:25.292Z,4.13
2019-04-16T22:30:53.841Z,3.23
2019-04-16T22:33:22.468Z,4.50
2019-04-16T22:35:51.073Z,4.03
2019-04-16T22:38:19.649Z,3.90
2019-04-16T22:41:02.309Z,4.10
2019-04-16T22:43:48.486Z,4.30
2019-04-16T22:46:20.705Z,3.93
2019-04-16T22:48:56.828Z,4.20
2019-04-16T22:51:25.628Z,3.70
2019-04-16T22:53:54.260Z,4.23
2019-04-16T22:56:28.344Z,4.33
2019-04-16T22:58:57.748Z,4.27
